Terminal Aerodrome Forecast
Issued by NWS

Home | Current Version | Previous Version | Text Only | Print | Product List | Glossary On
Versions: 1 2 3 4 5 6 7 8 9 10 11 12 13 14
622
FTUS46 KLOX 231723
TAFOXR
TAF
KOXR 231723Z 2318/2418 26008KT P6SM SCT200
     FM232000 27014G20KT P6SM SCT200
     FM240300 27008KT P6SM SCT200
     FM240600 VRB03KT P6SM SCT200=

USA.gov is the U.S. government's official web portal to all federal, state and local government web resources and services.